Time;durP1;ratioP1;P1;durP2;ratioP2;P2;SDS_P1;SDS_P2;PMS_P1;PMS_P2;Temp;Humidity;BMP_temperature;BMP_pressure;BME280_temperature;BME280_humidity;BME280_pressure;Samples;Min_cycle;Max_cycle;Signal;HPM_P1;HPM_P2
2022/01/23 00:01:52;;;;;;;69.65;33.85;;;-2.70;99.90;;;;;;2668991;39;22399;31
2022/01/23 00:04:27;;;;;;;65.30;32.70;;;-2.70;99.90;;;;;;2585576;54;21193;31
2022/01/23 00:07:05;;;;;;;83.67;38.13;;;-2.70;99.90;;;;;;2585580;54;20956;31
2022/01/23 00:09:38;;;;;;;80.20;34.30;;;-2.70;99.90;;;;;;2585539;54;21094;31
2022/01/23 00:12:14;;;;;;;93.47;45.53;;;-2.70;99.90;;;;;;2585464;54;20177;31
2022/01/23 00:17:39;;;;;;;77.10;39.05;;;-2.70;99.90;;;;;;2585192;54;20089;31
2022/01/23 00:20:14;;;;;;;;;;;-2.70;99.90;;;;;;2604236;46;20045;31
2022/01/23 00:22:50;;;;;;;75.05;37.70;;;-2.70;99.90;;;;;;2585808;54;20009;31
2022/01/23 00:30:55;;;;;;;74.28;35.53;;;-2.80;99.90;;;;;;2585742;54;19934;31
2022/01/23 00:33:32;;;;;;;83.97;39.07;;;-2.80;99.90;;;;;;2585530;54;20023;31
2022/01/23 00:36:05;;;;;;;86.55;38.85;;;-2.80;99.90;;;;;;2585668;54;20997;31
2022/01/23 00:38:37;;;;;;;68.93;33.40;;;-2.80;99.90;;;;;;2585725;54;20050;31
2022/01/23 00:41:23;;;;;;;65.10;32.15;;;-2.80;99.90;;;;;;2603846;46;20026;31
2022/01/23 00:43:57;;;;;;;134.10;51.20;;;-2.70;99.90;;;;;;2604085;46;20883;31
2022/01/23 00:46:34;;;;;;;139.32;55.83;;;-2.70;99.90;;;;;;2585294;54;20042;31
2022/01/23 00:49:27;;;;;;;134.75;54.75;;;-2.70;99.90;;;;;;2585334;54;20808;31
2022/01/23 00:52:02;;;;;;;143.03;52.93;;;-2.70;99.90;;;;;;2585621;54;20871;31
2022/01/23 00:54:36;;;;;;;121.80;49.30;;;-2.70;99.90;;;;;;2585382;54;21043;31
2022/01/23 00:57:10;;;;;;;121.53;50.00;;;-2.70;99.90;;;;;;2585557;54;20946;31
2022/01/23 00:59:44;;;;;;;124.47;49.97;;;-2.70;99.90;;;;;;2604209;46;20029;31
2022/01/23 01:02:17;;;;;;;162.43;54.75;;;-2.70;99.90;;;;;;2683573;39;20935;31
2022/01/23 01:04:52;;;;;;;159.70;55.50;;;-2.70;99.90;;;;;;2585269;54;20829;31
2022/01/23 01:09:59;;;;;;;152.60;48.88;;;-2.70;99.90;;;;;;2585026;54;21028;31
2022/01/23 01:32:08;;;;;;;58.75;24.00;;;-2.50;99.90;;;;;;2603841;46;22297;31
2022/01/23 01:34:46;;;;;;;52.50;24.33;;;-2.50;99.90;;;;;;2603966;46;20980;31
2022/01/23 01:37:23;;;;;;;55.65;23.85;;;-2.50;99.90;;;;;;2603966;46;20869;31
2022/01/23 01:42:24;;;;;;;46.85;22.05;;;-2.40;99.90;;;;;;2585231;54;20026;31
2022/01/23 01:44:57;;;;;;;60.00;25.83;;;-2.40;99.90;;;;;;2661877;39;22210;31
2022/01/23 01:47:49;;;;;;;57.88;25.42;;;-2.40;99.90;;;;;;2585396;54;19941;31
2022/01/23 01:52:54;;;;;;;49.38;23.20;;;-2.30;99.90;;;;;;2585157;54;20065;31
2022/01/23 01:55:29;;;;;;;54.80;22.33;;;-2.30;99.90;;;;;;2585014;54;20799;31
2022/01/23 01:58:13;;;;;;;46.43;21.37;;;-2.20;99.90;;;;;;2753799;31;20424;31
2022/01/23 02:08:20;;;;;;;45.13;21.92;;;-2.20;99.90;;;;;;2585183;54;20073;31
2022/01/23 02:09:35;;;;;;;43.70;20.95;;;-2.10;99.90;;;;;;2585290;54;20082;31
2022/01/23 02:17:51;;;;;;;35.65;18.42;;;-2.10;99.90;;;;;;2603773;46;20964;31
2022/01/23 02:23:08;;;;;;;44.33;20.77;;;-2.00;99.90;;;;;;2585222;54;19934;31
2022/01/23 02:55:52;;;;;;;31.10;16.50;;;-1.90;99.90;;;;;;2603665;47;20026;31
2022/01/23 03:01:08;;;;;;;47.40;20.42;;;-1.80;99.90;;;;;;2603827;47;20986;31
2022/01/23 03:04:03;;;;;;;36.63;17.30;;;-1.80;99.90;;;;;;2683295;39;20879;31
2022/01/23 03:07:09;;;;;;;33.28;17.70;;;-1.90;99.90;;;;;;2585168;54;20091;31
2022/01/23 03:09:57;;;;;;;35.65;16.85;;;-1.80;99.90;;;;;;2585389;54;20026;31
2022/01/23 03:15:27;;;;;;;43.03;19.00;;;-1.80;99.90;;;;;;2603554;47;20033;31
2022/01/23 03:26:26;;;;;;;40.70;18.30;;;-1.70;99.90;;;;;;2683177;39;22331;31
2022/01/23 03:29:20;;;;;;;40.87;19.30;;;-1.70;99.90;;;;;;2585755;54;20034;31
2022/01/23 03:32:13;;;;;;;35.40;17.60;;;-1.70;99.90;;;;;;2585621;54;20904;31
2022/01/23 03:34:48;;;;;;;37.13;17.90;;;-1.70;99.90;;;;;;2604106;46;20238;31
2022/01/23 03:37:22;;;;;;;38.03;19.13;;;-1.60;99.90;;;;;;2585682;54;21026;31
2022/01/23 03:39:55;;;;;;;41.10;18.85;;;-1.60;99.90;;;;;;2585907;54;20082;31
2022/01/23 03:42:32;;;;;;;34.20;18.02;;;-1.60;99.90;;;;;;2585754;54;20913;31
2022/01/23 03:45:25;;;;;;;38.50;19.50;;;-1.60;99.90;;;;;;2585571;54;20076;31
2022/01/23 03:49:31;;;;;;;38.17;18.77;;;-1.60;99.90;;;;;;2585732;54;21037;31
2022/01/23 03:50:56;;;;;;;38.00;19.50;;;-1.60;99.90;;;;;;2585724;54;20136;31
2022/01/23 03:53:38;;;;;;;38.08;20.42;;;-1.60;99.90;;;;;;2594281;46;21158;31
2022/01/23 03:56:14;;;;;;;42.35;19.90;;;-1.50;99.90;;;;;;2585675;54;20049;31
2022/01/23 03:58:46;;;;;;;41.45;21.27;;;-1.50;99.90;;;;;;2585862;54;20085;31
2022/01/23 04:01:26;;;;;;;40.85;22.20;;;-1.50;99.90;;;;;;2585603;54;20031;31
2022/01/23 04:04:15;;;;;;;41.85;20.50;;;-1.50;99.90;;;;;;2585844;54;20059;31
2022/01/23 04:06:49;;;;;;;44.85;21.90;;;-1.50;99.90;;;;;;2604328;46;20967;31
2022/01/23 04:09:23;;;;;;;45.40;23.08;;;-1.50;99.90;;;;;;2585487;54;20053;31
2022/01/23 04:11:58;;;;;;;42.25;23.02;;;-1.50;99.90;;;;;;2585570;54;20030;31
2022/01/23 04:14:32;;;;;;;53.40;24.50;;;-1.50;99.90;;;;;;2603625;46;20097;31
2022/01/23 04:19:56;;;;;;;53.10;26.65;;;-1.50;99.90;;;;;;2585554;54;20825;31
2022/01/23 04:33:28;;;;;;;48.30;25.40;;;-1.30;99.90;;;;;;2585689;54;21009;31
2022/01/23 04:48:03;;;;;;;45.35;24.05;;;-1.20;99.90;;;;;;2585699;54;21837;31
2022/01/23 05:01:31;;;;;;;43.75;21.38;;;-1.20;99.90;;;;;;2585560;54;20053;31
2022/01/23 05:04:18;;;;;;;42.50;21.85;;;-1.10;99.90;;;;;;2585117;54;20026;31
2022/01/23 05:07:12;;;;;;;42.38;22.50;;;-1.10;99.90;;;;;;2604120;46;21059;31
2022/01/23 05:10:22;;;;;;;48.37;25.13;;;-1.10;99.90;;;;;;2585354;54;20831;31
2022/01/23 05:13:17;;;;;;;46.83;26.67;;;-1.10;99.90;;;;;;2585373;54;21094;31
2022/01/23 05:15:49;;;;;;;49.70;27.00;;;-1.10;99.90;;;;;;2585559;54;20971;31
2022/01/23 05:18:24;;;;;;;48.25;26.80;;;-1.00;99.90;;;;;;2585323;54;20105;31
2022/01/23 05:21:09;;;;;;;52.73;26.70;;;-1.10;99.90;;;;;;2585476;54;20027;31
2022/01/23 05:23:42;;;;;;;47.38;23.23;;;-1.10;99.90;;;;;;2585583;54;21225;31
2022/01/23 05:26:13;;;;;;;52.90;27.85;;;-1.00;99.90;;;;;;2603835;46;20996;31
2022/01/23 05:28:50;;;;;;;58.20;24.38;;;-1.00;99.90;;;;;;2585367;54;21028;31
2022/01/23 05:31:26;;;;;;;58.42;28.55;;;-1.00;99.90;;;;;;2585388;54;20781;31
2022/01/23 05:36:27;;;;;;;49.30;26.65;;;-0.90;99.90;;;;;;2585263;54;20097;31
2022/01/23 05:41:31;;;;;;;53.25;26.45;;;-0.90;99.90;;;;;;2603805;46;21038;31
2022/01/23 05:44:06;;;;;;;53.58;24.58;;;-0.90;99.90;;;;;;2585154;54;20108;31
2022/01/23 05:46:40;;;;;;;54.10;26.67;;;-0.90;99.90;;;;;;2585366;54;20028;31
2022/01/23 05:49:19;;;;;;;51.33;23.67;;;-0.90;99.90;;;;;;2585151;54;20080;31
2022/01/23 05:52:06;;;;;;;49.90;24.80;;;-0.80;99.90;;;;;;2585095;54;20033;31
2022/01/23 05:54:59;;;;;;;54.65;24.55;;;-0.80;99.90;;;;;;2585470;54;20044;31
2022/01/23 05:58:02;;;;;;;47.10;23.88;;;-0.80;99.90;;;;;;2603828;46;20022;31
2022/01/23 06:00:45;;;;;;;58.85;30.55;;;-0.80;99.90;;;;;;2585194;54;20795;31
2022/01/23 06:03:24;;;;;;;47.40;24.33;;;-0.80;99.90;;;;;;2682758;39;20424;31
2022/01/23 06:06:06;;;;;;;55.50;26.30;;;-0.80;99.90;;;;;;2585048;54;20344;31
2022/01/23 06:08:40;;;;;;;55.47;27.70;;;-0.80;99.90;;;;;;2585251;54;20033;31
2022/01/23 06:11:14;;;;;;;53.47;26.83;;;-0.80;99.90;;;;;;2603239;46;21082;31
2022/01/23 06:16:20;;;;;;;45.97;22.90;;;-0.80;99.90;;;;;;2585373;54;20033;31
2022/01/23 06:19:18;;;;;;;60.95;30.08;;;-0.80;99.90;;;;;;2585016;54;20026;31
2022/01/23 06:22:11;;;;;;;55.55;27.95;;;-0.80;99.90;;;;;;2585132;54;21720;31
2022/01/23 06:24:53;;;;;;;45.95;21.85;;;-0.90;99.90;;;;;;2585063;54;21567;31
2022/01/23 06:27:51;;;;;;;56.60;26.15;;;-0.80;99.90;;;;;;2585035;54;20753;31
2022/01/23 06:30:23;;;;;;;53.05;25.40;;;-0.80;99.90;;;;;;2585264;54;22278;31
2022/01/23 06:35:28;;;;;;;37.20;19.92;;;-0.80;99.90;;;;;;2584824;54;20855;31
2022/01/23 06:38:00;;;;;;;44.63;21.00;;;-0.80;99.90;;;;;;2585342;54;20994;31
2022/01/23 06:40:34;;;;;;;43.72;23.60;;;-0.80;99.90;;;;;;2603609;47;20049;31
2022/01/23 06:43:28;;;;;;;48.80;23.00;;;-0.70;99.90;;;;;;2585186;54;20022;31
2022/01/23 06:46:11;;;;;;;43.90;22.77;;;-0.70;99.90;;;;;;2585305;54;20924;31
2022/01/23 06:48:44;;;;;;;41.47;23.40;;;-0.70;99.90;;;;;;2584774;54;20093;31
2022/01/23 06:51:24;;;;;;;48.43;24.50;;;-0.70;99.90;;;;;;2603720;47;20968;31
2022/01/23 06:54:05;;;;;;;50.20;25.90;;;-0.80;99.90;;;;;;2584855;54;21932;31
2022/01/23 06:59:21;;;;;;;46.07;24.10;;;-0.70;99.90;;;;;;2584971;54;20022;31
2022/01/23 07:02:04;;;;;;;41.90;23.27;;;-0.70;99.90;;;;;;2585288;54;20317;31
2022/01/23 07:05:00;;;;;;;45.38;24.58;;;-0.70;99.90;;;;;;2586048;54;20945;31
2022/01/23 07:08:05;;;;;;;53.75;25.23;;;-0.70;99.90;;;;;;2585718;54;19956;31
2022/01/23 07:11:18;;;;;;;48.70;24.90;;;-0.70;99.90;;;;;;2585386;54;21070;31
2022/01/23 07:14:19;;;;;;;48.42;24.92;;;-0.70;99.90;;;;;;2585569;54;21142;31
2022/01/23 07:20:05;;;;;;;43.20;22.00;;;-0.60;99.90;;;;;;2585612;54;20926;31
2022/01/23 07:23:21;;;;;;;38.00;20.90;;;-0.60;99.90;;;;;;2604374;46;20053;31
2022/01/23 07:26:04;;;;;;;32.90;19.77;;;-0.60;99.90;;;;;;2603814;46;21014;31
2022/01/23 07:28:46;;;;;;;37.63;19.73;;;-0.50;99.90;;;;;;2585726;54;20234;31
2022/01/23 07:31:42;;;;;;;32.40;18.50;;;-0.50;99.90;;;;;;2603994;46;21085;31
2022/01/23 07:34:31;;;;;;;37.80;18.93;;;-0.50;99.90;;;;;;2603778;46;20976;31
2022/01/23 07:37:10;;;;;;;34.95;17.95;;;-0.40;99.90;;;;;;2585897;54;20243;31
2022/01/23 07:39:59;;;;;;;34.10;19.13;;;-0.40;99.90;;;;;;2589185;46;20068;31
2022/01/23 07:42:47;;;;;;;36.80;18.50;;;-0.30;99.90;;;;;;2585590;54;19938;31
2022/01/23 07:45:46;;;;;;;31.95;17.70;;;-0.30;99.90;;;;;;2585601;54;20056;31
2022/01/23 07:48:44;;;;;;;32.43;19.00;;;-0.30;99.90;;;;;;2585828;54;20930;31
2022/01/23 07:51:57;;;;;;;34.20;17.27;;;-0.30;99.90;;;;;;2585441;54;21305;31
2022/01/23 07:57:45;;;;;;;35.22;20.83;;;-0.20;99.90;;;;;;2585815;54;20085;31
2022/01/23 08:00:39;;;;;;;41.90;22.83;;;-0.20;99.90;;;;;;2585804;54;20084;31
2022/01/23 08:03:14;;;;;;;42.83;24.37;;;-0.10;99.90;;;;;;2585553;54;20839;31
2022/01/23 08:06:13;;;;;;;43.33;26.35;;;-0.10;99.90;;;;;;2585287;54;20876;31
2022/01/23 08:09:09;;;;;;;45.40;27.77;;;-0.10;99.90;;;;;;2585750;54;20033;31
2022/01/23 08:11:52;;;;;;;48.58;28.48;;;-0.10;99.90;;;;;;2585678;54;20234;31
2022/01/23 08:14:32;;;;;;;44.23;28.37;;;0.00;99.90;;;;;;2585230;54;20809;31
2022/01/23 08:17:08;;;;;;;44.25;28.90;;;0.00;99.90;;;;;;2585609;54;20064;31
2022/01/23 08:19:41;;;;;;;43.40;27.25;;;0.10;99.90;;;;;;2585680;54;20951;31
2022/01/23 08:22:17;;;;;;;43.17;26.17;;;0.10;99.90;;;;;;2585666;54;20944;31
2022/01/23 08:24:50;;;;;;;48.15;26.75;;;0.10;99.90;;;;;;2584868;54;20325;31
2022/01/23 08:27:23;;;;;;;54.00;28.80;;;0.20;99.90;;;;;;2584752;54;21207;31
2022/01/23 08:30:09;;;;;;;44.75;25.10;;;0.20;99.90;;;;;;2585677;54;20022;31
2022/01/23 08:32:46;;;;;;;48.45;27.10;;;0.20;99.90;;;;;;2585295;54;20804;31
2022/01/23 08:35:23;;;;;;;51.67;27.38;;;0.30;99.90;;;;;;2687697;39;20924;31
2022/01/23 08:37:59;;;;;;;53.20;27.10;;;0.30;99.90;;;;;;2603608;46;20901;31
2022/01/23 08:41:48;;;;;;;48.83;26.27;;;0.40;99.90;;;;;;2585704;54;20898;31
2022/01/23 08:43:46;;;;;;;42.85;23.52;;;0.50;99.90;;;;;;2585512;54;20128;31
2022/01/23 08:46:31;;;;;;;43.15;23.10;;;0.50;99.90;;;;;;2683680;39;22089;31
2022/01/23 08:49:13;;;;;;;35.97;22.55;;;0.60;99.90;;;;;;2585716;54;20957;31
2022/01/23 08:51:48;;;;;;;44.73;23.13;;;0.70;99.90;;;;;;2585316;54;20049;31
2022/01/23 08:57:20;;;;;;;43.05;22.65;;;0.80;99.90;;;;;;2585637;54;20026;31
2022/01/23 09:06:02;;;;;;;45.13;24.40;;;1.00;99.90;;;;;;2585215;54;19941;31
2022/01/23 09:11:58;;;;;;;58.72;28.77;;;1.10;99.90;;;;;;2582673;54;20178;31
2022/01/23 10:20:29;;;;;;;48.10;24.30;;;2.00;99.90;;;;;;2584515;54;20912;31
2022/01/23 10:23:04;;;;;;;50.67;27.07;;;2.10;99.90;;;;;;2585354;54;20022;31
2022/01/23 10:25:54;;;;;;;41.65;21.67;;;2.10;99.90;;;;;;2585284;54;21266;31
2022/01/23 10:28:30;;;;;;;41.60;21.58;;;2.10;99.90;;;;;;2584941;54;20027;31
2022/01/23 10:31:07;;;;;;;37.53;19.77;;;2.10;99.90;;;;;;2585055;54;20917;31
2022/01/23 10:33:43;;;;;;;38.72;21.13;;;2.20;99.90;;;;;;2585135;54;20942;31
2022/01/23 10:36:21;;;;;;;39.75;19.50;;;2.20;99.90;;;;;;2585223;54;20829;31
2022/01/23 10:39:03;;;;;;;39.90;18.10;;;2.30;99.90;;;;;;2682688;39;21405;31
2022/01/23 10:41:59;;;;;;;35.30;18.20;;;2.30;99.90;;;;;;2585820;54;20873;31
2022/01/23 10:50:13;;;;;;;40.23;20.33;;;2.40;99.90;;;;;;2585405;54;20919;31
2022/01/23 10:52:53;;;;;;;41.83;19.57;;;2.40;99.90;;;;;;2584811;54;20044;31
2022/01/23 10:55:31;;;;;;;31.90;19.00;;;2.50;99.90;;;;;;2584979;54;20045;31
2022/01/23 10:58:08;;;;;;;32.05;18.55;;;2.60;99.90;;;;;;2585632;54;20026;31
2022/01/23 11:00:44;;;;;;;33.27;18.13;;;2.50;99.90;;;;;;2604569;46;20940;31
2022/01/23 11:03:19;;;;;;;31.37;16.50;;;2.50;99.90;;;;;;2585852;54;20053;31
2022/01/23 11:05:55;;;;;;;31.02;17.92;;;2.60;99.90;;;;;;2586022;54;20886;31
2022/01/23 11:08:33;;;;;;;30.00;18.07;;;2.60;99.90;;;;;;2585714;54;20100;31
2022/01/23 11:11:12;;;;;;;31.45;18.52;;;2.70;99.90;;;;;;2584876;54;20852;31
2022/01/23 11:22:14;;;;;;;26.55;16.40;;;2.70;99.90;;;;;;2585692;54;20026;31
2022/01/23 11:24:51;;;;;;;24.25;15.80;;;2.70;99.90;;;;;;2585756;54;20050;31
2022/01/23 11:27:28;;;;;;;28.35;17.25;;;2.70;99.90;;;;;;2584793;54;20776;31
2022/01/23 11:30:09;;;;;;;35.40;21.10;;;2.80;99.90;;;;;;2585927;54;20926;31
2022/01/23 11:32:42;;;;;;;35.55;20.90;;;2.70;99.90;;;;;;2584611;54;20778;31
2022/01/23 11:37:50;;;;;;;31.83;18.33;;;3.10;99.90;;;;;;2604037;46;21890;31
2022/01/23 11:40:39;;;;;;;27.10;18.13;;;3.10;99.90;;;;;;2584751;54;20775;31
2022/01/23 11:54:39;;;;;;;36.20;20.63;;;3.00;99.90;;;;;;2585557;54;20022;31
2022/01/23 11:57:43;;;;;;;36.70;22.10;;;3.00;99.90;;;;;;2702320;39;22587;31
2022/01/23 12:00:32;;;;;;;26.35;16.58;;;3.00;99.90;;;;;;2585475;54;21046;31
2022/01/23 12:03:13;;;;;;;26.10;16.60;;;3.00;99.90;;;;;;2585463;54;20770;31
2022/01/23 12:05:51;;;;;;;24.50;16.00;;;3.00;99.90;;;;;;2585853;54;20067;31
2022/01/23 12:11:43;;;;;;;31.70;18.70;;;2.90;99.90;;;;;;2585482;54;20140;31
2022/01/23 12:17:19;;;;;;;37.50;22.67;;;2.90;99.90;;;;;;2585835;54;20034;31
2022/01/23 12:19:57;;;;;;;43.40;23.20;;;2.90;99.90;;;;;;2585512;54;20807;31
2022/01/23 12:22:40;;;;;;;42.55;25.10;;;2.90;99.90;;;;;;2584745;54;20080;31
2022/01/23 12:25:16;;;;;;;44.03;26.33;;;2.90;99.90;;;;;;2584483;54;20073;31
2022/01/23 12:28:09;;;;;;;39.30;23.60;;;2.90;99.90;;;;;;2585474;54;21140;31
2022/01/23 12:30:47;;;;;;;41.70;24.00;;;2.90;99.90;;;;;;2585408;54;20915;31
2022/01/23 12:33:28;;;;;;;51.60;31.20;;;2.90;99.90;;;;;;2584472;54;21062;31
2022/01/23 12:36:05;;;;;;;40.13;25.60;;;2.90;99.90;;;;;;2585602;54;20137;31
2022/01/23 12:38:41;;;;;;;41.73;24.80;;;3.00;99.90;;;;;;2683626;39;22325;31
2022/01/23 12:41:23;;;;;;;41.53;26.88;;;3.00;99.90;;;;;;2584463;54;20041;31
2022/01/23 12:44:01;;;;;;;42.65;25.85;;;2.90;99.90;;;;;;2603579;46;20033;31
2022/01/23 12:46:41;;;;;;;58.20;34.47;;;3.00;99.90;;;;;;2585586;54;20030;31
2022/01/23 12:49:22;;;;;;;55.67;33.17;;;2.90;99.90;;;;;;2585228;54;20924;31
2022/01/23 12:52:13;;;;;;;51.70;31.70;;;2.90;99.90;;;;;;2585390;54;20093;31
2022/01/23 12:54:56;;;;;;;58.22;34.25;;;2.90;99.90;;;;;;2603837;46;20053;31
2022/01/23 12:57:36;;;;;;;33.10;20.70;;;2.90;99.90;;;;;;2585080;54;20928;31
2022/01/23 13:00:16;;;;;;;30.50;17.40;;;2.90;99.90;;;;;;2584573;54;20046;31
2022/01/23 13:02:57;;;;;;;31.37;17.73;;;2.90;99.90;;;;;;2584539;54;20040;31
2022/01/23 13:05:33;;;;;;;23.95;16.30;;;2.90;99.90;;;;;;2585500;54;20277;31
2022/01/23 13:08:18;;;;;;;;;;;2.90;99.90;;;;;;2584745;54;20034;31
2022/01/23 13:11:32;;;;;;;21.57;13.17;;;3.00;99.90;;;;;;2603778;46;20790;31
2022/01/23 13:14:01;;;;;;;24.85;14.60;;;3.00;99.90;;;;;;2585353;54;20865;31
2022/01/23 13:16:48;;;;;;;21.37;14.83;;;3.00;99.90;;;;;;2603737;46;20116;31
2022/01/23 13:19:57;;;;;;;23.25;14.30;;;3.00;99.90;;;;;;2585220;54;20988;31
2022/01/23 13:31:40;;;;;;;16.55;11.30;;;2.90;99.90;;;;;;2585285;54;20921;31
2022/01/23 13:34:32;;;;;;;16.43;10.97;;;3.00;99.90;;;;;;2585314;54;20968;31
2022/01/23 13:37:16;;;;;;;19.45;11.75;;;3.00;99.90;;;;;;2585336;54;20262;31
2022/01/23 13:39:57;;;;;;;20.33;13.27;;;2.90;99.90;;;;;;2585602;54;22385;31
2022/01/23 13:59:40;;;;;;;20.83;12.63;;;3.00;99.90;;;;;;2585303;54;20946;31
2022/01/23 14:02:18;;;;;;;20.55;12.35;;;3.00;99.90;;;;;;2584547;54;21124;31
2022/01/23 14:04:54;;;;;;;20.10;13.30;;;2.90;99.90;;;;;;2592699;46;20030;31
2022/01/23 14:07:30;;;;;;;20.48;12.57;;;3.00;99.90;;;;;;2602977;46;20050;31
2022/01/23 14:10:14;;;;;;;22.67;13.97;;;2.90;99.90;;;;;;2585146;54;20086;31
2022/01/23 14:15:36;;;;;;;23.55;14.30;;;3.00;99.90;;;;;;2585322;54;21244;31
2022/01/23 14:18:12;;;;;;;19.75;13.45;;;3.00;99.90;;;;;;2603127;46;20924;31
2022/01/23 14:20:49;;;;;;;18.15;12.00;;;3.00;99.90;;;;;;2585204;54;20030;31
2022/01/23 14:23:25;;;;;;;20.63;12.73;;;2.90;99.90;;;;;;2585284;54;20042;31
2022/01/23 14:26:03;;;;;;;17.80;12.15;;;2.90;99.90;;;;;;2603344;47;20033;31
2022/01/23 14:28:40;;;;;;;21.05;13.10;;;2.90;99.90;;;;;;2585152;54;21021;31
2022/01/23 14:31:18;;;;;;;18.02;12.07;;;2.90;99.90;;;;;;2584922;54;20034;31
2022/01/23 14:33:52;;;;;;;18.50;13.05;;;2.90;99.90;;;;;;2585553;54;22419;31
2022/01/23 14:36:43;;;;;;;20.05;14.43;;;2.90;99.90;;;;;;2584953;54;21046;31
2022/01/23 14:39:19;;;;;;;21.00;14.00;;;2.90;99.90;;;;;;2585197;54;20031;31
2022/01/23 14:41:57;;;;;;;19.80;13.00;;;2.90;99.90;;;;;;2603559;47;20269;31
2022/01/23 14:44:32;;;;;;;20.70;13.30;;;2.80;99.90;;;;;;2585168;54;20150;31
2022/01/23 14:47:10;;;;;;;21.60;13.80;;;2.80;99.90;;;;;;2583985;54;21216;31
2022/01/23 14:49:46;;;;;;;24.80;15.70;;;2.80;99.90;;;;;;2604005;47;20057;31
2022/01/23 14:52:23;;;;;;;21.30;15.15;;;2.80;99.90;;;;;;2585129;54;20938;31
2022/01/23 14:54:58;;;;;;;26.20;16.00;;;2.80;99.90;;;;;;2585109;54;20971;31
2022/01/23 14:57:37;;;;;;;25.93;17.67;;;2.80;99.90;;;;;;2584110;54;20057;31
2022/01/23 15:00:14;;;;;;;24.75;16.30;;;2.80;99.90;;;;;;2584051;54;21063;31
2022/01/23 15:02:49;;;;;;;24.50;16.60;;;2.70;99.90;;;;;;2585329;54;20932;31
2022/01/23 15:05:25;;;;;;;24.50;15.10;;;2.80;99.90;;;;;;2584785;54;21047;31
2022/01/23 15:07:59;;;;;;;29.90;17.23;;;2.80;99.90;;;;;;2603503;47;20027;31
2022/01/23 15:10:38;;;;;;;29.30;16.98;;;2.80;99.90;;;;;;2585161;54;20920;31
2022/01/23 15:15:46;;;;;;;26.30;16.35;;;2.80;99.90;;;;;;2603195;47;20920;31
2022/01/23 15:18:21;;;;;;;30.35;20.35;;;2.80;99.90;;;;;;2585007;54;20816;31
2022/01/23 15:21:00;;;;;;;29.45;17.27;;;2.80;99.90;;;;;;2584903;54;20140;31
2022/01/23 15:23:33;;;;;;;26.40;15.75;;;2.80;99.90;;;;;;2603679;47;20960;31
2022/01/23 15:26:09;;;;;;;29.35;16.20;;;2.80;99.90;;;;;;2584954;54;20026;31
2022/01/23 15:28:43;;;;;;;21.30;14.00;;;2.80;99.90;;;;;;2585731;54;20917;31
2022/01/23 15:31:25;;;;;;;21.20;13.30;;;2.80;99.90;;;;;;2586146;54;21404;31
2022/01/23 15:33:59;;;;;;;27.48;16.35;;;2.80;99.90;;;;;;2585898;54;20026;31
2022/01/23 15:36:33;;;;;;;30.40;16.67;;;2.70;99.90;;;;;;2585577;54;20958;31
2022/01/23 15:39:09;;;;;;;27.50;16.05;;;2.80;99.90;;;;;;2585676;54;20045;31
2022/01/23 15:41:42;;;;;;;29.80;19.30;;;2.80;99.90;;;;;;2684044;39;22300;31
2022/01/23 15:44:16;;;;;;;37.25;21.08;;;2.70;99.90;;;;;;2585664;54;20044;31
2022/01/23 15:46:53;;;;;;;40.92;24.95;;;2.70;99.90;;;;;;2585891;54;21125;31
2022/01/23 15:49:34;;;;;;;;;;;2.70;99.90;;;;;;2585753;54;20054;31
2022/01/23 15:52:11;;;;;;;65.17;38.00;;;2.70;99.90;;;;;;2587702;46;19934;31
2022/01/23 15:54:47;;;;;;;58.55;27.60;;;2.70;99.90;;;;;;2584652;54;20304;31
2022/01/23 15:57:25;;;;;;;85.53;49.27;;;2.60;99.90;;;;;;2585555;54;20059;31
2022/01/23 15:59:59;;;;;;;139.25;72.50;;;2.60;99.90;;;;;;2604003;46;20912;31
2022/01/23 16:02:36;;;;;;;137.02;74.60;;;2.60;99.90;;;;;;2603903;46;20113;31
2022/01/23 16:05:13;;;;;;;134.80;75.80;;;2.60;99.90;;;;;;2604143;46;20133;31
2022/01/23 16:07:47;;;;;;;131.55;89.05;;;2.60;99.90;;;;;;2585553;54;20893;31
2022/01/23 16:10:23;;;;;;;83.45;52.80;;;2.60;99.90;;;;;;2585427;54;20722;31
2022/01/23 16:13:01;;;;;;;74.05;43.42;;;2.50;99.90;;;;;;2603692;46;20062;31
2022/01/23 16:18:29;;;;;;;250.95;157.57;;;2.50;99.90;;;;;;2585373;54;20231;31
2022/01/23 16:21:07;;;;;;;332.57;204.10;;;2.50;99.90;;;;;;2585958;54;21111;31
2022/01/23 16:23:41;;;;;;;122.13;74.22;;;2.50;99.90;;;;;;2585610;54;20026;31
2022/01/23 16:26:20;;;;;;;66.65;37.75;;;2.50;99.90;;;;;;2584737;54;20037;31
2022/01/23 16:28:54;;;;;;;50.88;29.65;;;2.50;99.90;;;;;;2604266;46;20154;31
2022/01/23 16:31:27;;;;;;;45.30;25.20;;;2.40;99.90;;;;;;2584680;54;20997;31
2022/01/23 16:34:07;;;;;;;41.30;22.50;;;2.50;99.90;;;;;;2584323;54;21223;31
2022/01/23 16:36:47;;;;;;;85.05;38.45;;;2.40;99.90;;;;;;2585246;54;20261;31
2022/01/23 16:39:25;;;;;;;91.40;48.08;;;2.50;99.90;;;;;;2585588;54;20963;31
2022/01/23 16:42:03;;;;;;;82.95;43.80;;;2.40;99.90;;;;;;2585550;54;20096;31
2022/01/23 16:44:41;;;;;;;73.55;38.40;;;2.40;99.90;;;;;;2585538;54;20026;31
2022/01/23 16:50:21;;;;;;;62.85;33.63;;;2.40;99.90;;;;;;2584239;54;20569;31
2022/01/23 16:55:56;;;;;;;52.30;27.20;;;2.40;99.90;;;;;;2585283;54;20034;31
2022/01/23 16:58:35;;;;;;;41.20;22.80;;;2.40;99.90;;;;;;2585135;54;20909;31
2022/01/23 17:01:10;;;;;;;42.50;25.80;;;2.40;99.90;;;;;;2585451;54;20921;31
2022/01/23 17:03:43;;;;;;;45.47;25.17;;;2.40;99.90;;;;;;2683047;39;21424;31
2022/01/23 17:06:22;;;;;;;56.22;28.73;;;2.40;99.90;;;;;;2585321;54;20756;31
2022/01/23 17:08:54;;;;;;;49.50;26.77;;;2.40;99.90;;;;;;2585423;54;20096;31
2022/01/23 17:11:28;;;;;;;43.30;23.20;;;2.40;99.90;;;;;;2683714;39;22398;31
2022/01/23 17:14:24;;;;;;;45.05;23.77;;;2.40;99.90;;;;;;2585335;54;20844;31
2022/01/23 17:16:57;;;;;;;39.50;24.10;;;2.40;99.90;;;;;;2604060;46;20022;31
2022/01/23 17:19:31;;;;;;;53.13;27.73;;;2.40;99.90;;;;;;2584618;54;20098;31
2022/01/23 17:22:07;;;;;;;48.35;26.85;;;2.40;99.90;;;;;;2603620;46;20081;31
2022/01/23 17:24:45;;;;;;;55.38;27.73;;;2.40;99.90;;;;;;2585244;54;20033;31
2022/01/23 17:27:26;;;;;;;56.10;29.90;;;2.40;99.90;;;;;;2585462;54;20026;31
2022/01/23 17:30:02;;;;;;;54.22;27.50;;;2.40;99.90;;;;;;2603744;46;21347;31
2022/01/23 17:32:37;;;;;;;48.80;26.05;;;2.40;99.90;;;;;;2603771;46;20945;31
2022/01/23 17:35:20;;;;;;;46.05;24.70;;;2.40;99.90;;;;;;2585238;54;20485;31
2022/01/23 17:37:57;;;;;;;40.60;22.10;;;2.40;99.90;;;;;;2585187;54;20773;31
2022/01/23 17:40:30;;;;;;;44.20;23.55;;;2.40;99.90;;;;;;2585054;54;20026;31
2022/01/23 17:43:06;;;;;;;35.30;20.40;;;2.40;99.90;;;;;;2585028;54;19989;31
2022/01/23 17:45:50;;;;;;;40.15;21.45;;;2.40;99.90;;;;;;2584963;54;20060;31
2022/01/23 17:48:48;;;;;;;37.67;20.58;;;2.40;99.90;;;;;;2585185;54;20027;31
2022/01/23 17:51:20;;;;;;;44.90;24.70;;;2.40;99.90;;;;;;2772743;31;21162;31
2022/01/23 17:53:59;;;;;;;45.27;23.87;;;2.40;99.90;;;;;;2603451;46;20894;31
2022/01/23 17:56:35;;;;;;;40.25;22.10;;;2.40;99.90;;;;;;2585498;54;20035;31
2022/01/23 17:59:10;;;;;;;42.40;23.23;;;2.40;99.90;;;;;;2603356;46;20801;31
2022/01/23 18:01:45;;;;;;;44.95;22.58;;;2.40;99.90;;;;;;2585162;54;20034;31
2022/01/23 18:04:19;;;;;;;35.92;21.73;;;2.40;99.90;;;;;;2584916;54;20049;31
2022/01/23 18:06:55;;;;;;;43.75;23.70;;;2.40;99.90;;;;;;2772792;31;21068;31
2022/01/23 18:09:31;;;;;;;40.60;24.58;;;2.40;99.90;;;;;;2603480;46;20026;31
2022/01/23 18:12:08;;;;;;;41.92;22.75;;;2.40;99.90;;;;;;2603675;46;20951;31
2022/01/23 18:14:54;;;;;;;44.47;24.60;;;2.40;99.90;;;;;;2585261;54;20925;31
2022/01/23 18:17:28;;;;;;;44.63;25.95;;;2.40;99.90;;;;;;2682995;39;21114;31
2022/01/23 18:20:02;;;;;;;43.00;26.17;;;2.40;99.90;;;;;;2604142;46;20928;31
2022/01/23 18:25:07;;;;;;;53.53;28.57;;;2.40;99.90;;;;;;2603254;46;21213;31
2022/01/23 18:27:43;;;;;;;46.70;27.52;;;2.40;99.90;;;;;;2585239;54;20247;31
2022/01/23 18:30:27;;;;;;;47.47;28.33;;;2.40;99.90;;;;;;2585186;54;20026;31
2022/01/23 18:36:01;;;;;;;60.20;33.95;;;2.30;99.90;;;;;;2585105;54;20067;31
2022/01/23 18:38:37;;;;;;;62.28;33.72;;;2.30;99.90;;;;;;2585042;54;20096;31
2022/01/23 18:41:29;;;;;;;56.50;31.25;;;2.30;99.90;;;;;;2585003;54;20885;31
2022/01/23 18:44:07;;;;;;;67.40;36.57;;;2.30;99.90;;;;;;2584996;54;20950;31
2022/01/23 18:46:45;;;;;;;69.40;36.67;;;2.20;99.90;;;;;;2593508;47;20226;31
2022/01/23 18:49:27;;;;;;;86.82;45.13;;;2.20;99.90;;;;;;2584142;54;20034;31
2022/01/23 18:52:03;;;;;;;101.25;47.25;;;2.20;99.90;;;;;;2603208;47;20863;31
2022/01/23 18:54:49;;;;;;;93.43;44.38;;;2.20;99.90;;;;;;2585144;54;21152;31
2022/01/23 18:57:49;;;;;;;72.10;39.78;;;2.20;99.90;;;;;;2585203;54;20115;31